createdAt,value
2023-03-16T00:00:49.902Z,5.70
2023-03-16T00:03:19.172Z,6.32
2023-03-16T00:05:50.659Z,6.18
2023-03-16T00:08:19.286Z,6.32
2023-03-16T00:10:46.735Z,6.25
2023-03-16T00:13:18.334Z,6.00
2023-03-16T00:16:02.705Z,6.10
2023-03-16T00:18:29.375Z,5.78
2023-03-16T00:20:58.355Z,5.78
2023-03-16T00:23:28.767Z,6.53
2023-03-16T00:25:56.851Z,6.70
2023-03-16T00:28:23.625Z,7.10
2023-03-16T00:30:50.457Z,5.95
2023-03-16T00:33:17.127Z,5.85
2023-03-16T00:35:50.736Z,6.05
2023-03-16T00:38:21.721Z,5.72
2023-03-16T00:40:51.214Z,6.15
2023-03-16T00:43:18.693Z,7.88
2023-03-16T00:45:45.638Z,5.47
2023-03-16T00:48:12.087Z,5.68
2023-03-16T00:50:39.581Z,5.43
2023-03-16T00:53:06.239Z,5.68
2023-03-16T00:55:33.343Z,5.55
2023-03-16T00:57:59.822Z,5.82
2023-03-16T01:00:28.323Z,5.18
2023-03-16T01:02:55.100Z,4.22
2023-03-16T01:05:21.548Z,5.97
2023-03-16T01:07:47.992Z,5.45
2023-03-16T01:10:14.434Z,4.95
2023-03-16T01:12:41.168Z,5.75
2023-03-16T01:15:08.536Z,5.57
2023-03-16T01:17:35.111Z,5.25
2023-03-16T01:20:02.275Z,5.43
2023-03-16T01:22:28.817Z,5.53
2023-03-16T01:24:55.301Z,4.95
2023-03-16T01:27:22.720Z,5.20
2023-03-16T01:29:49.744Z,5.88
2023-03-16T01:32:16.146Z,5.53
2023-03-16T01:34:42.621Z,5.18
2023-03-16T01:37:09.103Z,5.47
2023-03-16T01:39:35.586Z,5.20
2023-03-16T01:42:02.079Z,5.45
2023-03-16T01:44:30.789Z,4.80
2023-03-16T01:47:00.261Z,4.70
2023-03-16T01:49:33.978Z,4.78
2023-03-16T01:52:06.178Z,4.55
2023-03-16T01:54:50.315Z,4.70
2023-03-16T01:57:22.731Z,4.70
2023-03-16T01:59:57.916Z,4.93
2023-03-16T02:02:29.801Z,5.28
2023-03-16T02:05:23.015Z,4.07
2023-03-16T02:07:51.931Z,4.35
2023-03-16T02:10:20.696Z,4.05
2023-03-16T02:12:47.349Z,4.15
2023-03-16T02:15:14.956Z,3.95
2023-03-16T02:17:43.947Z,4.40
2023-03-16T02:20:46.212Z,4.40
2023-03-16T02:23:18.706Z,4.00
2023-03-16T02:26:08.865Z,4.38
2023-03-16T02:28:51.031Z,3.83
2023-03-16T02:31:18.424Z,4.22
2023-03-16T02:33:47.488Z,4.47
2023-03-16T02:36:19.393Z,4.07
2023-03-16T02:38:46.477Z,4.13
2023-03-16T02:41:19.308Z,4.00
2023-03-16T02:44:14.620Z,4.18
2023-03-16T02:46:43.462Z,4.40
2023-03-16T02:49:18.673Z,4.22
2023-03-16T02:51:46.767Z,3.97
2023-03-16T02:54:13.963Z,3.78
2023-03-16T02:56:40.459Z,3.58
2023-03-16T02:59:06.961Z,3.97
2023-03-16T03:01:34.948Z,4.32
2023-03-16T03:04:02.506Z,4.30
2023-03-16T03:06:28.991Z,3.55
2023-03-16T03:08:56.463Z,3.72
2023-03-16T03:11:22.955Z,4.07
2023-03-16T03:13:49.584Z,3.83
2023-03-16T03:16:16.180Z,3.53
2023-03-16T03:18:42.668Z,3.38
2023-03-16T03:21:09.157Z,2.92
2023-03-16T03:23:35.666Z,3.50
2023-03-16T03:26:04.197Z,3.22
2023-03-16T03:28:31.134Z,4.15
2023-03-16T03:30:57.560Z,3.78
2023-03-16T03:33:24.007Z,3.90
2023-03-16T03:35:57.958Z,3.15
2023-03-16T03:38:26.261Z,3.50
2023-03-16T03:40:53.625Z,3.55
2023-03-16T03:43:21.068Z,3.55
2023-03-16T03:45:47.542Z,3.50
2023-03-16T03:48:14.103Z,3.45
2023-03-16T03:50:40.739Z,3.72
2023-03-16T03:53:07.604Z,3.53
2023-03-16T03:55:34.108Z,3.83
2023-03-16T03:58:00.901Z,4.25
2023-03-16T04:00:27.561Z,3.80
2023-03-16T04:02:54.126Z,3.80
2023-03-16T04:05:21.819Z,4.05
2023-03-16T04:07:49.340Z,3.60
2023-03-16T04:10:16.002Z,3.80
2023-03-16T04:12:42.470Z,3.35
2023-03-16T04:15:09.663Z,3.22
2023-03-16T04:17:36.084Z,3.92
2023-03-16T04:20:05.912Z,3.90
2023-03-16T04:22:32.434Z,4.03
2023-03-16T04:24:58.881Z,3.33
2023-03-16T04:27:25.342Z,3.53
2023-03-16T04:29:55.708Z,3.78
2023-03-16T04:32:22.196Z,4.28
2023-03-16T04:34:48.648Z,4.18
2023-03-16T04:37:15.188Z,4.32
2023-03-16T04:39:42.013Z,3.70
2023-03-16T04:42:08.509Z,3.92
2023-03-16T04:44:34.990Z,3.92
2023-03-16T04:47:01.475Z,4.55
2023-03-16T04:49:27.967Z,3.65
2023-03-16T04:51:54.438Z,4.40
2023-03-16T04:54:20.943Z,4.68
2023-03-16T04:56:47.435Z,4.53
2023-03-16T04:59:13.886Z,4.82
2023-03-16T05:01:40.338Z,4.57
2023-03-16T05:04:06.857Z,4.25
2023-03-16T05:06:33.534Z,4.28
2023-03-16T05:09:00.989Z,5.05
2023-03-16T05:11:27.952Z,4.43
2023-03-16T05:13:54.364Z,4.95
2023-03-16T05:16:21.036Z,4.70
2023-03-16T05:18:47.474Z,4.32
2023-03-16T05:21:13.924Z,4.30
2023-03-16T05:23:40.403Z,4.93
2023-03-16T05:26:07.552Z,4.43
2023-03-16T05:28:34.145Z,5.18
2023-03-16T05:31:03.529Z,5.07
2023-03-16T05:33:30.174Z,5.13
2023-03-16T05:35:57.992Z,5.10
2023-03-16T05:38:27.526Z,5.80
2023-03-16T05:40:54.464Z,5.03
2023-03-16T05:43:22.212Z,5.38
2023-03-16T05:45:48.775Z,5.50
2023-03-16T05:48:15.574Z,5.10
2023-03-16T05:50:42.043Z,5.00
2023-03-16T05:53:08.966Z,5.53
2023-03-16T05:55:35.444Z,5.10
2023-03-16T05:58:03.776Z,5.00
2023-03-16T06:00:31.849Z,5.50
2023-03-16T06:02:58.365Z,5.63
2023-03-16T06:05:25.242Z,5.50
2023-03-16T06:07:52.408Z,5.32
2023-03-16T06:10:19.139Z,5.72
2023-03-16T06:12:45.966Z,4.65
2023-03-16T06:15:12.911Z,5.38
2023-03-16T06:17:41.378Z,5.97
2023-03-16T06:20:11.202Z,6.07
2023-03-16T06:22:42.111Z,5.63
2023-03-16T06:25:09.910Z,5.05
2023-03-16T06:27:36.858Z,5.28
2023-03-16T06:30:04.211Z,6.10
2023-03-16T06:32:31.561Z,5.53
2023-03-16T06:35:01.975Z,5.32
2023-03-16T06:37:28.652Z,5.32
2023-03-16T06:39:55.128Z,5.20
2023-03-16T06:42:22.147Z,5.60
2023-03-16T06:44:48.558Z,5.40
2023-03-16T06:47:15.175Z,5.43
2023-03-16T06:49:41.773Z,5.80
2023-03-16T06:52:10.438Z,7.63
2023-03-16T06:54:37.594Z,5.82
2023-03-16T06:57:04.133Z,5.60
2023-03-16T06:59:31.209Z,5.55
2023-03-16T07:01:57.662Z,5.00
2023-03-16T07:04:26.544Z,5.22
2023-03-16T07:06:53.008Z,5.55
2023-03-16T07:09:19.581Z,5.78
2023-03-16T07:11:46.017Z,5.28
2023-03-16T07:14:12.464Z,5.25
2023-03-16T07:16:38.961Z,5.45
2023-03-16T07:19:05.548Z,4.95
2023-03-16T07:21:39.046Z,5.07
2023-03-16T07:24:06.508Z,5.70
2023-03-16T07:26:32.998Z,5.38
2023-03-16T07:28:59.992Z,5.50
2023-03-16T07:31:26.769Z,5.72
2023-03-16T07:33:53.241Z,5.53
2023-03-16T07:36:20.490Z,5.05
2023-03-16T07:38:46.954Z,5.15
2023-03-16T07:41:13.976Z,5.72
2023-03-16T07:43:40.423Z,6.00
2023-03-16T07:46:06.933Z,5.80
2023-03-16T07:48:33.449Z,5.63
2023-03-16T07:50:59.922Z,5.95
2023-03-16T07:53:26.416Z,7.28
2023-03-16T07:55:52.886Z,5.80
2023-03-16T07:58:19.321Z,5.55
2023-03-16T08:00:45.797Z,5.57
2023-03-16T08:03:12.368Z,5.85
2023-03-16T08:05:38.944Z,5.68
2023-03-16T08:08:05.742Z,4.60
2023-03-16T08:10:33.672Z,5.05
2023-03-16T08:13:00.204Z,4.72
2023-03-16T08:15:26.713Z,5.30
2023-03-16T08:17:54.016Z,5.20
2023-03-16T08:20:21.119Z,5.32
2023-03-16T08:22:49.594Z,4.97
2023-03-16T08:25:16.276Z,5.47
2023-03-16T08:27:42.844Z,4.43
2023-03-16T08:30:12.659Z,4.90
2023-03-16T08:32:40.959Z,4.60
2023-03-16T08:35:13.339Z,5.70
2023-03-16T08:37:40.448Z,5.28
2023-03-16T08:40:10.602Z,4.85
2023-03-16T08:42:41.185Z,4.88
2023-03-16T08:45:12.390Z,4.30
2023-03-16T08:47:40.496Z,5.32
2023-03-16T08:50:08.003Z,4.50
2023-03-16T08:52:36.393Z,5.13
2023-03-16T08:55:05.644Z,5.30
2023-03-16T08:57:33.622Z,5.32
2023-03-16T09:00:00.315Z,4.93
2023-03-16T09:02:27.579Z,5.07
2023-03-16T09:04:54.698Z,4.60
2023-03-16T09:07:21.786Z,5.22
2023-03-16T09:09:48.330Z,5.45
2023-03-16T09:12:14.834Z,5.13
2023-03-16T09:14:41.353Z,5.22
2023-03-16T09:17:07.890Z,5.65
2023-03-16T09:19:50.152Z,5.68
2023-03-16T09:22:19.645Z,5.40
2023-03-16T09:24:46.278Z,5.57
2023-03-16T09:27:13.000Z,5.55
2023-03-16T09:29:40.933Z,5.90
2023-03-16T09:32:08.195Z,5.38
2023-03-16T09:34:34.728Z,5.85
2023-03-16T09:37:03.900Z,6.05
2023-03-16T09:39:30.414Z,5.50
2023-03-16T09:42:16.733Z,5.80
2023-03-16T09:45:06.316Z,5.72
2023-03-16T09:47:35.909Z,5.18
2023-03-16T09:50:06.483Z,5.93
2023-03-16T09:52:55.303Z,5.75
2023-03-16T09:55:32.343Z,5.68
2023-03-16T09:58:00.374Z,5.82
2023-03-16T10:01:03.010Z,5.47
2023-03-16T10:03:58.919Z,5.78
2023-03-16T10:06:26.464Z,5.45
2023-03-16T10:09:17.339Z,5.57
2023-03-16T10:11:49.843Z,5.43
2023-03-16T10:14:33.920Z,5.18
2023-03-16T10:17:25.167Z,6.10
2023-03-16T10:19:58.066Z,5.10
2023-03-16T10:22:27.384Z,5.53
2023-03-16T10:25:07.519Z,5.47
2023-03-16T10:27:38.778Z,5.05
2023-03-16T10:30:19.698Z,5.43
2023-03-16T10:32:47.081Z,5.40
2023-03-16T10:35:36.094Z,5.10
2023-03-16T10:38:02.533Z,5.63
2023-03-16T10:40:33.271Z,6.03
2023-03-16T10:43:16.348Z,5.80
2023-03-16T10:45:43.633Z,5.47
2023-03-16T10:48:21.616Z,5.03
2023-03-16T10:50:54.693Z,4.80
2023-03-16T10:53:25.310Z,4.63
2023-03-16T10:55:58.858Z,5.18
2023-03-16T10:58:35.376Z,5.00
2023-03-16T11:01:03.473Z,5.18
2023-03-16T11:03:38.793Z,4.75
2023-03-16T11:06:07.550Z,5.25
2023-03-16T11:08:37.433Z,5.18
2023-03-16T11:11:16.744Z,4.70
2023-03-16T11:13:45.991Z,4.78
2023-03-16T11:16:21.690Z,4.47
2023-03-16T11:18:54.550Z,4.78
2023-03-16T11:21:48.478Z,4.88
2023-03-16T11:24:26.246Z,4.70
2023-03-16T11:26:59.944Z,4.38
2023-03-16T11:29:46.922Z,4.82
2023-03-16T11:32:21.979Z,4.45
2023-03-16T11:34:48.926Z,4.57
2023-03-16T11:37:43.438Z,4.80
2023-03-16T11:40:33.124Z,4.05
2023-03-16T11:43:18.290Z,4.10
2023-03-16T11:46:10.534Z,4.53
2023-03-16T11:49:01.610Z,3.70
2023-03-16T11:51:48.715Z,3.90
2023-03-16T11:54:39.958Z,3.72
2023-03-16T11:57:38.527Z,4.07
2023-03-16T12:00:05.790Z,3.78
2023-03-16T12:02:35.441Z,3.30
2023-03-16T12:05:30.286Z,3.55
2023-03-16T12:14:26.654Z,3.53
2023-03-16T12:17:01.981Z,3.45
2023-03-16T12:19:46.968Z,3.05
2023-03-16T12:22:28.412Z,3.53
2023-03-16T12:24:55.152Z,3.00
2023-03-16T12:27:38.576Z,3.20
2023-03-16T12:30:30.046Z,3.33
2023-03-16T12:33:18.116Z,3.55
2023-03-16T12:36:06.342Z,2.97
2023-03-16T12:38:40.574Z,2.95
2023-03-16T12:41:29.103Z,3.20
2023-03-16T12:43:58.535Z,3.27
2023-03-16T12:48:56.312Z,3.28
2023-03-16T12:51:42.416Z,3.15
2023-03-16T12:54:23.869Z,3.58
2023-03-16T12:56:59.545Z,2.90
2023-03-16T12:59:40.090Z,2.63
2023-03-16T13:02:14.664Z,3.08
2023-03-16T13:04:44.459Z,2.55
2023-03-16T13:07:19.132Z,2.80
2023-03-16T13:09:53.680Z,2.85
2023-03-16T13:12:41.563Z,2.75
2023-03-16T13:15:29.580Z,2.63
2023-03-16T13:18:39.217Z,2.90
2023-03-16T13:21:39.702Z,2.55
2023-03-16T13:24:17.976Z,2.20
2023-03-16T13:27:04.190Z,2.35
2023-03-16T13:29:32.714Z,2.08
2023-03-16T13:32:02.214Z,2.30
2023-03-16T13:36:58.969Z,2.33
2023-03-16T13:39:28.045Z,2.30
2023-03-16T13:42:20.104Z,2.20
2023-03-16T13:44:46.870Z,1.90
2023-03-16T13:47:17.146Z,2.13
2023-03-16T13:49:50.744Z,2.55
2023-03-16T13:52:25.392Z,2.50
2023-03-16T13:54:52.880Z,2.30
2023-03-16T13:57:22.158Z,2.40
2023-03-16T13:59:49.578Z,2.38
2023-03-16T14:02:19.085Z,2.60
2023-03-16T14:07:17.715Z,2.22
2023-03-16T14:09:49.697Z,2.35
2023-03-16T14:12:18.465Z,2.70
2023-03-16T14:14:50.609Z,2.30
2023-03-16T14:17:20.445Z,2.40
2023-03-16T14:19:52.633Z,2.20
2023-03-16T14:22:23.740Z,2.47
2023-03-16T14:24:58.904Z,2.30
2023-03-16T14:27:28.393Z,2.50
2023-03-16T14:32:41.968Z,2.50
2023-03-16T14:35:21.853Z,2.28
2023-03-16T14:37:50.123Z,2.75
2023-03-16T14:40:28.347Z,2.25
2023-03-16T14:42:56.531Z,2.30
2023-03-16T14:45:34.663Z,2.63
2023-03-16T14:48:17.102Z,2.75
2023-03-16T14:50:44.412Z,2.55
2023-03-16T14:53:11.200Z,2.20
2023-03-16T14:55:37.753Z,2.40
2023-03-16T14:58:04.532Z,2.38
2023-03-16T15:00:37.114Z,2.08
2023-03-16T15:03:17.041Z,2.42
2023-03-16T15:05:47.917Z,2.60
2023-03-16T15:08:18.962Z,2.53
2023-03-16T15:10:45.471Z,2.75
2023-03-16T15:13:39.378Z,2.70
2023-03-16T15:16:07.612Z,2.78
2023-03-16T15:18:34.248Z,2.85
2023-03-16T15:21:02.721Z,2.63
2023-03-16T15:23:30.782Z,3.10
2023-03-16T15:26:02.787Z,3.10
2023-03-16T15:28:29.605Z,2.97
2023-03-16T15:30:58.368Z,3.55
2023-03-16T15:33:26.509Z,3.35
2023-03-16T15:35:55.860Z,5.47
2023-03-16T15:38:25.693Z,3.03
2023-03-16T15:40:53.153Z,4.70
2023-03-16T15:43:22.915Z,5.63
2023-03-16T15:45:49.749Z,3.50
2023-03-16T15:48:21.531Z,3.92
2023-03-16T15:50:53.673Z,3.70
2023-03-16T15:53:32.583Z,3.53
2023-03-16T15:56:04.218Z,3.70
2023-03-16T15:58:32.369Z,2.67
2023-03-16T16:01:00.993Z,3.38
2023-03-16T16:03:27.655Z,3.80
2023-03-16T16:05:54.640Z,4.43
2023-03-16T16:08:21.614Z,5.53
2023-03-16T16:10:49.609Z,5.68
2023-03-16T16:13:26.711Z,4.22
2023-03-16T16:15:57.301Z,4.82
2023-03-16T16:18:37.151Z,6.40
2023-03-16T16:21:05.730Z,5.50
2023-03-16T16:23:33.143Z,8.20
2023-03-16T16:26:03.292Z,10.07
2023-03-16T16:28:32.287Z,4.55
2023-03-16T16:31:00.847Z,5.70
2023-03-16T16:33:28.353Z,4.93
2023-03-16T16:35:57.017Z,4.30
2023-03-16T16:38:24.413Z,4.55
2023-03-16T16:40:56.869Z,4.53
2023-03-16T16:43:32.432Z,4.72
2023-03-16T16:46:05.209Z,4.38
2023-03-16T16:48:36.633Z,6.07
2023-03-16T16:51:07.070Z,4.55
2023-03-16T16:53:33.634Z,6.07
2023-03-16T16:56:00.328Z,5.30
2023-03-16T16:58:27.082Z,4.47
2023-03-16T17:00:56.918Z,5.28
2023-03-16T17:03:28.248Z,4.45
2023-03-16T17:05:57.793Z,4.30
2023-03-16T17:10:53.251Z,4.53
2023-03-16T17:13:30.847Z,4.03
2023-03-16T17:15:57.525Z,4.00
2023-03-16T17:18:24.327Z,3.92
2023-03-16T17:20:52.240Z,4.20
2023-03-16T17:23:29.255Z,3.88
2023-03-16T17:25:58.295Z,4.20
2023-03-16T17:28:28.228Z,3.97
2023-03-16T17:30:54.703Z,4.75
2023-03-16T17:33:28.467Z,4.43
2023-03-16T17:35:55.107Z,4.25
2023-03-16T17:38:23.741Z,4.80
2023-03-16T17:40:52.060Z,4.27
2023-03-16T17:43:21.575Z,3.85
2023-03-16T17:48:21.948Z,4.88
2023-03-16T17:50:48.700Z,4.32
2023-03-16T17:53:16.978Z,3.88
2023-03-16T17:55:45.412Z,4.40
2023-03-16T17:58:30.098Z,4.47
2023-03-16T18:00:57.287Z,4.03
2023-03-16T18:03:30.004Z,3.50
2023-03-16T18:05:57.203Z,4.03
2023-03-16T18:08:26.478Z,4.55
2023-03-16T18:11:01.945Z,3.92
2023-03-16T18:13:40.057Z,4.07
2023-03-16T18:16:07.502Z,4.63
2023-03-16T18:18:38.299Z,3.95
2023-03-16T18:21:05.067Z,4.55
2023-03-16T18:23:35.808Z,4.82
2023-03-16T18:26:03.417Z,4.35
2023-03-16T18:28:31.365Z,3.90
2023-03-16T18:30:59.161Z,3.63
2023-03-16T18:33:35.254Z,3.67
2023-03-16T18:36:07.848Z,4.93
2023-03-16T18:38:40.643Z,4.00
2023-03-16T18:41:16.548Z,5.68
2023-03-16T18:43:44.243Z,4.10
2023-03-16T18:46:29.029Z,4.65
2023-03-16T18:48:58.709Z,4.75
2023-03-16T18:51:26.481Z,4.32
2023-03-16T18:53:53.448Z,3.75
2023-03-16T18:56:28.403Z,4.38
2023-03-16T18:58:56.330Z,4.25
2023-03-16T19:01:26.849Z,4.00
2023-03-16T19:03:53.793Z,4.05
2023-03-16T19:06:34.852Z,7.65
2023-03-16T19:09:05.848Z,4.65
2023-03-16T19:11:33.204Z,3.58
2023-03-16T19:13:59.718Z,4.40
2023-03-16T19:16:27.031Z,4.07
2023-03-16T19:18:53.550Z,4.22
2023-03-16T19:21:22.867Z,4.10
2023-03-16T19:23:58.520Z,3.78
2023-03-16T19:26:25.308Z,3.63
2023-03-16T19:28:51.905Z,3.42
2023-03-16T19:31:22.543Z,3.55
2023-03-16T19:33:49.675Z,4.50
2023-03-16T19:36:19.940Z,4.22
2023-03-16T19:38:50.209Z,3.78
2023-03-16T19:41:26.718Z,3.83
2023-03-16T19:43:56.521Z,4.32
2023-03-16T19:46:27.403Z,4.13
2023-03-16T19:48:54.845Z,4.13
2023-03-16T19:51:22.183Z,4.13
2023-03-16T19:53:48.689Z,4.28
2023-03-16T19:56:18.251Z,5.22
2023-03-16T19:58:51.053Z,4.30
2023-03-16T20:01:32.425Z,4.53
2023-03-16T20:03:59.725Z,8.60
2023-03-16T20:06:27.038Z,4.47
2023-03-16T20:08:53.558Z,3.70
2023-03-16T20:11:29.523Z,3.60
2023-03-16T20:13:57.208Z,3.80
2023-03-16T20:16:35.172Z,3.90
2023-03-16T20:19:10.108Z,4.47
2023-03-16T20:21:36.596Z,3.90
2023-03-16T20:24:03.363Z,4.00
2023-03-16T20:26:32.763Z,4.30
2023-03-16T20:31:31.211Z,4.00
2023-03-16T20:33:58.414Z,3.83
2023-03-16T20:36:26.337Z,4.15
2023-03-16T20:38:52.766Z,4.38
2023-03-16T20:41:30.308Z,3.80
2023-03-16T20:43:59.398Z,4.25
2023-03-16T20:46:29.358Z,4.57
2023-03-16T20:48:57.243Z,3.63
2023-03-16T20:51:24.551Z,4.57
2023-03-16T20:53:51.266Z,4.38
2023-03-16T20:56:23.425Z,4.15
2023-03-16T20:58:51.940Z,4.20
2023-03-16T21:01:21.294Z,4.03
2023-03-16T21:06:31.618Z,3.90
2023-03-16T21:09:00.233Z,4.20
2023-03-16T21:11:37.862Z,4.30
2023-03-16T21:14:11.670Z,3.70
2023-03-16T21:16:38.915Z,4.10
2023-03-16T21:19:13.612Z,3.90
2023-03-16T21:21:40.112Z,3.75
2023-03-16T21:24:08.021Z,3.53
2023-03-16T21:26:35.642Z,3.65
2023-03-16T21:29:08.177Z,3.58
2023-03-16T21:31:34.922Z,3.97
2023-03-16T21:34:01.827Z,4.03
2023-03-16T21:36:28.338Z,3.35
2023-03-16T21:38:55.820Z,3.17
2023-03-16T21:41:22.415Z,3.55
2023-03-16T21:43:50.000Z,3.60
2023-03-16T21:46:19.354Z,3.58
2023-03-16T21:48:49.470Z,3.55
2023-03-16T21:51:19.068Z,3.58
2023-03-16T21:53:46.928Z,3.97
2023-03-16T21:56:15.571Z,3.58
2023-03-16T21:58:43.263Z,3.53
2023-03-16T22:01:23.028Z,3.22
2023-03-16T22:03:53.110Z,3.90
2023-03-16T22:06:21.529Z,3.38
2023-03-16T22:08:49.125Z,3.60
2023-03-16T22:11:22.643Z,3.20
2023-03-16T22:13:50.316Z,3.55
2023-03-16T22:16:19.930Z,3.47
2023-03-16T22:18:49.132Z,3.80
2023-03-16T22:21:21.623Z,3.55
2023-03-16T22:23:48.259Z,3.78
2023-03-16T22:26:18.374Z,3.35
2023-03-16T22:28:46.343Z,3.60
2023-03-16T22:31:17.744Z,3.22
2023-03-16T22:33:47.613Z,3.20
2023-03-16T22:36:20.029Z,2.85
2023-03-16T22:38:54.290Z,2.80
2023-03-16T22:41:20.831Z,2.90
2023-03-16T22:43:47.590Z,2.53
2023-03-16T22:46:19.916Z,3.00
2023-03-16T22:48:46.395Z,2.60
2023-03-16T22:51:24.097Z,2.63
2023-03-16T22:53:53.748Z,3.08
2023-03-16T22:56:20.190Z,2.55
2023-03-16T22:59:02.374Z,2.90
2023-03-16T23:01:39.526Z,2.75
2023-03-16T23:04:29.855Z,2.63
2023-03-16T23:06:57.219Z,2.70
2023-03-16T23:09:23.783Z,2.50
2023-03-16T23:11:54.247Z,2.75
2023-03-16T23:14:24.091Z,2.78
2023-03-16T23:16:52.350Z,2.80
2023-03-16T23:19:33.918Z,2.67
2023-03-16T23:22:04.752Z,2.45
2023-03-16T23:24:32.694Z,2.50
2023-03-16T23:26:59.665Z,2.75
2023-03-16T23:29:26.632Z,2.40
2023-03-16T23:31:53.852Z,3.00
2023-03-16T23:34:22.785Z,2.50
2023-03-16T23:36:50.775Z,2.05
2023-03-16T23:39:17.872Z,2.45
2023-03-16T23:41:48.394Z,2.63
2023-03-16T23:44:22.068Z,2.70
2023-03-16T23:46:48.583Z,2.40
2023-03-16T23:49:27.408Z,2.35
2023-03-16T23:51:56.158Z,2.55
2023-03-16T23:54:25.474Z,2.37
2023-03-16T23:56:52.289Z,2.15
2023-03-16T23:59:20.187Z,2.42
